createdAt,value
2023-05-15T00:02:02.578Z,11.60
2023-05-15T00:07:05.360Z,12.80
2023-05-15T00:12:10.276Z,11.40
2023-05-15T00:17:13.273Z,11.40
2023-05-15T00:22:16.061Z,11.60
2023-05-15T00:27:20.419Z,12.00
2023-05-15T00:32:23.305Z,13.60
2023-05-15T00:37:27.872Z,10.40
2023-05-15T00:42:32.385Z,13.40
2023-05-15T00:47:35.271Z,11.20
2023-05-15T00:52:38.186Z,14.00
2023-05-15T00:57:42.685Z,12.80
2023-05-15T01:02:46.261Z,12.20
2023-05-15T01:07:53.543Z,13.60
2023-05-15T01:12:57.711Z,10.20
2023-05-15T01:18:00.651Z,10.20
2023-05-15T01:23:11.964Z,10.80
2023-05-15T01:28:18.744Z,13.40
2023-05-15T01:33:24.273Z,10.60
2023-05-15T01:38:35.852Z,11.60
2023-05-15T01:43:40.955Z,10.80
2023-05-15T01:48:44.531Z,9.80
2023-05-15T01:53:47.738Z,14.00
2023-05-15T01:58:51.882Z,13.00
2023-05-15T02:03:55.458Z,11.20
2023-05-15T02:08:58.527Z,11.40
2023-05-15T02:14:02.712Z,10.40
2023-05-15T02:19:05.547Z,9.00
2023-05-15T02:24:08.495Z,9.40
2023-05-15T02:29:17.051Z,10.20
2023-05-15T02:34:25.782Z,11.80
2023-05-15T02:39:28.572Z,11.60
2023-05-15T02:44:32.749Z,12.60
2023-05-15T02:49:35.744Z,11.80
2023-05-15T02:54:38.531Z,12.00
2023-05-15T02:59:42.859Z,14.60
2023-05-15T03:04:46.465Z,9.00
2023-05-15T03:09:50.812Z,10.00
2023-05-15T03:14:54.991Z,11.00
2023-05-15T03:19:57.807Z,13.00
2023-05-15T03:25:01.883Z,11.20
2023-05-15T03:30:07.750Z,8.00
2023-05-15T03:35:11.551Z,9.20
2023-05-15T03:40:15.288Z,11.20
2023-05-15T03:45:19.480Z,9.60
2023-05-15T03:50:23.807Z,9.80
2023-05-15T03:55:26.870Z,8.40
2023-05-15T04:00:31.245Z,11.80
2023-05-15T04:05:34.047Z,9.60
2023-05-15T04:10:36.909Z,11.20
2023-05-15T04:15:41.439Z,9.80
2023-05-15T04:20:44.244Z,9.60
2023-05-15T04:25:47.300Z,9.00
2023-05-15T04:30:51.609Z,9.00
2023-05-15T04:35:54.553Z,7.80
2023-05-15T04:40:57.327Z,9.80
2023-05-15T04:46:01.476Z,9.80
2023-05-15T04:51:04.307Z,7.80
2023-05-15T04:56:07.356Z,5.40
2023-05-15T05:01:11.585Z,10.60
2023-05-15T05:06:14.368Z,9.00
2023-05-15T05:11:17.142Z,8.20
2023-05-15T05:16:21.341Z,8.60
2023-05-15T05:21:24.217Z,8.40
2023-05-15T05:26:27.560Z,10.40
2023-05-15T05:31:31.886Z,9.20
2023-05-15T05:36:36.907Z,6.80
2023-05-15T05:41:39.829Z,10.00
2023-05-15T05:46:45.247Z,7.60
2023-05-15T05:51:48.072Z,8.40
2023-05-15T05:56:50.882Z,6.00
2023-05-15T06:01:55.500Z,7.20
2023-05-15T06:06:58.434Z,7.60
2023-05-15T06:12:04.579Z,9.40
2023-05-15T06:17:09.033Z,7.00
2023-05-15T06:22:12.028Z,6.80
2023-05-15T06:27:14.937Z,7.60
2023-05-15T06:32:19.112Z,9.20
2023-05-15T06:37:22.296Z,7.60
2023-05-15T06:42:25.104Z,8.00
2023-05-15T06:47:29.323Z,6.00
2023-05-15T06:52:32.278Z,6.00
2023-05-15T06:57:35.151Z,24.60
2023-05-15T07:02:39.338Z,29.40
2023-05-15T07:07:42.737Z,34.60
2023-05-15T07:12:45.981Z,32.00
2023-05-15T07:17:50.315Z,31.25
2023-05-15T07:22:56.684Z,31.75
2023-05-15T07:27:59.776Z,34.50
2023-05-15T07:33:04.495Z,38.00
2023-05-15T07:38:08.045Z,33.60
2023-05-15T07:43:10.861Z,37.00
2023-05-15T07:48:18.367Z,35.00
2023-05-15T07:53:21.755Z,35.00
2023-05-15T07:58:24.573Z,33.25
2023-05-15T08:03:29.119Z,33.00
2023-05-15T08:08:32.020Z,33.00
2023-05-15T08:13:34.794Z,32.75
2023-05-15T08:18:38.948Z,29.60
2023-05-15T08:23:41.950Z,28.80
2023-05-15T08:28:44.936Z,34.80
2023-05-15T08:33:49.079Z,29.20
2023-05-15T08:38:51.875Z,28.80
2023-05-15T08:43:54.632Z,28.20
2023-05-15T08:48:58.807Z,30.00
2023-05-15T08:54:04.548Z,28.60
2023-05-15T08:59:07.426Z,24.40
2023-05-15T09:04:11.710Z,24.00
2023-05-15T09:09:14.536Z,22.20
2023-05-15T09:14:17.339Z,21.00
2023-05-15T09:19:22.507Z,22.40
2023-05-15T09:24:28.283Z,18.80
2023-05-15T09:29:31.179Z,20.40
2023-05-15T09:34:35.932Z,18.20
2023-05-15T09:39:41.779Z,16.00
2023-05-15T09:44:45.165Z,17.60
2023-05-15T09:49:49.344Z,16.00
2023-05-15T09:54:52.187Z,19.60
2023-05-15T09:59:55.093Z,17.20
2023-05-15T10:04:59.744Z,19.00
2023-05-15T10:10:03.525Z,15.60
2023-05-15T10:15:07.455Z,15.20
2023-05-15T10:20:12.590Z,12.60
2023-05-15T10:25:17.797Z,16.40
2023-05-15T10:30:20.940Z,17.00
2023-05-15T10:35:25.419Z,18.60
2023-05-15T10:40:28.314Z,16.20
2023-05-15T10:45:31.325Z,17.40
2023-05-15T10:50:37.524Z,19.80
2023-05-15T10:55:40.529Z,19.80
2023-05-15T11:00:44.065Z,20.00
2023-05-15T11:06:10.780Z,16.00
2023-05-15T11:11:55.798Z,17.00
2023-05-15T11:16:59.873Z,17.00
2023-05-15T11:22:09.734Z,16.00
2023-05-15T11:27:13.597Z,17.20
2023-05-15T11:32:56.355Z,17.00
2023-05-15T11:38:01.155Z,15.60
2023-05-15T11:43:05.570Z,16.20
2023-05-15T11:48:09.119Z,17.00
2023-05-15T11:53:13.743Z,17.00
2023-05-15T11:58:17.400Z,20.00
2023-05-15T12:03:24.966Z,16.80
2023-05-15T12:08:32.620Z,14.80
2023-05-15T12:13:35.498Z,15.40
2023-05-15T12:18:38.567Z,16.80
2023-05-15T12:23:48.721Z,13.40
2023-05-15T12:28:59.338Z,17.00
2023-05-15T12:34:02.505Z,17.00
2023-05-15T12:39:08.182Z,16.60
2023-05-15T12:44:17.321Z,15.40
2023-05-15T12:49:23.668Z,14.80
2023-05-15T12:54:27.967Z,22.00
2023-05-15T12:59:31.090Z,20.80
2023-05-15T13:04:33.885Z,23.20
2023-05-15T13:09:38.399Z,181.33
2023-05-15T13:14:42.882Z,173.25
2023-05-15T13:19:45.676Z,275.75
2023-05-15T13:24:49.937Z,396.75
2023-05-15T13:29:52.809Z,442.00
2023-05-15T13:34:57.872Z,422.33
2023-05-15T13:40:02.197Z,396.25
2023-05-15T13:45:06.255Z,376.00
2023-05-15T13:50:09.948Z,334.75
2023-05-15T13:55:14.234Z,345.00
2023-05-15T14:00:18.621Z,321.25
2023-05-15T14:05:21.680Z,300.25
2023-05-15T14:10:26.490Z,277.75
2023-05-15T14:15:29.586Z,266.25
2023-05-15T14:20:32.484Z,258.33
2023-05-15T14:25:36.862Z,243.00
2023-05-15T14:30:39.792Z,245.33
2023-05-15T14:35:42.703Z,232.33
2023-05-15T14:40:47.006Z,225.00
2023-05-15T14:45:49.823Z,231.67
2023-05-15T14:50:52.717Z,221.00
2023-05-15T14:55:58.594Z,212.00
2023-05-15T15:01:02.131Z,200.00
2023-05-15T15:06:05.540Z,207.50
2023-05-15T15:11:10.365Z,181.50
2023-05-15T15:16:13.340Z,180.00
2023-05-15T15:21:16.281Z,182.75
2023-05-15T15:26:21.614Z,160.00
2023-05-15T15:31:24.456Z,172.00
2023-05-15T15:36:27.363Z,169.50
2023-05-15T15:41:32.650Z,154.50
2023-05-15T15:46:35.575Z,153.00
2023-05-15T15:51:38.461Z,147.25
2023-05-15T15:56:42.948Z,150.00
2023-05-15T16:01:46.339Z,142.75
2023-05-15T16:06:49.198Z,140.50
2023-05-15T16:11:54.670Z,133.75
2023-05-15T16:16:57.586Z,124.50
2023-05-15T16:22:00.535Z,127.00
2023-05-15T16:27:04.955Z,120.75
2023-05-15T16:32:08.402Z,93.50
2023-05-15T16:37:11.352Z,86.00
2023-05-15T16:42:15.670Z,74.75
2023-05-15T16:47:18.437Z,73.67
2023-05-15T16:52:21.463Z,67.00
2023-05-15T16:57:26.145Z,61.00
2023-05-15T17:02:29.216Z,60.00
2023-05-15T17:07:32.165Z,56.00
2023-05-15T17:12:36.409Z,51.00
2023-05-15T17:17:39.498Z,48.00
2023-05-15T17:22:42.467Z,41.00
2023-05-15T17:27:46.999Z,38.50
2023-05-15T17:32:50.000Z,40.00
2023-05-15T17:37:53.142Z,39.75
2023-05-15T17:42:57.359Z,41.00
2023-05-15T17:48:03.681Z,40.25
2023-05-15T17:53:06.764Z,42.25
2023-05-15T17:58:11.115Z,35.25
2023-05-15T18:03:14.052Z,33.25
2023-05-15T18:08:17.036Z,32.75
2023-05-15T18:13:21.325Z,33.75
2023-05-15T18:18:24.402Z,37.75
2023-05-15T18:23:27.564Z,37.00
2023-05-15T18:28:32.755Z,37.25
2023-05-15T18:33:35.792Z,35.75
2023-05-15T18:38:38.968Z,36.75
2023-05-15T18:43:43.334Z,34.25
2023-05-15T18:48:46.212Z,31.60
2023-05-15T18:53:49.071Z,35.75
2023-05-15T18:58:54.706Z,34.20
2023-05-15T19:03:57.765Z,34.40
2023-05-15T19:09:00.647Z,33.40
2023-05-15T19:14:05.216Z,34.20
2023-05-15T19:19:08.443Z,33.00
2023-05-15T19:24:11.745Z,34.40
2023-05-15T19:29:15.971Z,28.40
2023-05-15T19:34:18.982Z,33.20
2023-05-15T19:39:21.828Z,30.80
2023-05-15T19:44:26.092Z,30.60
2023-05-15T19:49:28.947Z,29.00
2023-05-15T19:54:31.765Z,26.40
2023-05-15T19:59:35.963Z,30.00
2023-05-15T20:04:38.807Z,24.80
2023-05-15T20:09:41.610Z,26.20
2023-05-15T20:14:50.602Z,28.00
2023-05-15T20:19:53.883Z,26.60
2023-05-15T20:24:56.676Z,26.60
2023-05-15T20:30:01.846Z,27.40
2023-05-15T20:35:05.223Z,24.40
2023-05-15T20:40:11.109Z,27.80
2023-05-15T20:45:15.386Z,25.20
2023-05-15T20:50:18.760Z,25.20
2023-05-15T20:55:21.684Z,23.00
2023-05-15T21:00:25.950Z,24.80
2023-05-15T21:05:29.025Z,24.20
2023-05-15T21:10:31.801Z,24.80
2023-05-15T21:15:35.961Z,23.80
2023-05-15T21:20:38.958Z,24.40
2023-05-15T21:25:43.096Z,24.00
2023-05-15T21:30:47.376Z,22.60
2023-05-15T21:35:51.244Z,23.40
2023-05-15T21:40:54.354Z,20.60
2023-05-15T21:45:58.791Z,24.00
2023-05-15T21:51:01.737Z,26.20
2023-05-15T21:56:04.934Z,23.20
2023-05-15T22:01:09.222Z,21.80
2023-05-15T22:06:12.040Z,20.00
2023-05-15T22:11:15.357Z,19.60
2023-05-15T22:16:19.626Z,24.40
2023-05-15T22:21:22.459Z,20.00
2023-05-15T22:26:25.407Z,21.80
2023-05-15T22:31:29.552Z,24.00
2023-05-15T22:36:35.041Z,21.40
2023-05-15T22:41:37.919Z,20.00
2023-05-15T22:46:42.414Z,20.60
2023-05-15T22:51:45.378Z,20.00
2023-05-15T22:56:48.230Z,21.00
2023-05-15T23:01:52.489Z,20.60
2023-05-15T23:06:55.678Z,21.80
2023-05-15T23:11:58.547Z,20.80
2023-05-15T23:17:02.782Z,19.20
2023-05-15T23:22:05.837Z,19.20
2023-05-15T23:27:08.716Z,18.20
2023-05-15T23:32:13.478Z,19.40
2023-05-15T23:37:16.653Z,16.00
2023-05-15T23:42:19.547Z,18.80
2023-05-15T23:47:23.658Z,18.80
2023-05-15T23:52:26.637Z,19.40
2023-05-15T23:57:29.444Z,15.80
